sensor_id;sensor_type;location;lat;lon;timestamp;P1;durP1;ratioP1;P2;durP2;ratioP2
8665;SDS011;4370;48.916;8.380;2023-03-21T00:00:45;3.17;;;2.13;;
8665;SDS011;4370;48.916;8.380;2023-03-21T00:03:11;2.30;;;2.10;;
8665;SDS011;4370;48.916;8.380;2023-03-21T00:05:38;3.20;;;2.20;;
8665;SDS011;4370;48.916;8.380;2023-03-21T00:08:05;3.57;;;2.50;;
8665;SDS011;4370;48.916;8.380;2023-03-21T00:10:31;3.27;;;2.37;;
8665;SDS011;4370;48.916;8.380;2023-03-21T00:12:57;4.73;;;3.00;;
8665;SDS011;4370;48.916;8.380;2023-03-21T00:15:23;2.57;;;2.30;;
8665;SDS011;4370;48.916;8.380;2023-03-21T00:17:54;2.20;;;2.00;;
8665;SDS011;4370;48.916;8.380;2023-03-21T00:20:27;4.07;;;2.47;;
8665;SDS011;4370;48.916;8.380;2023-03-21T00:22:53;3.03;;;2.20;;
8665;SDS011;4370;48.916;8.380;2023-03-21T00:25:19;2.50;;;2.30;;
8665;SDS011;4370;48.916;8.380;2023-03-21T00:27:45;2.87;;;2.10;;
8665;SDS011;4370;48.916;8.380;2023-03-21T00:30:11;2.67;;;2.47;;
8665;SDS011;4370;48.916;8.380;2023-03-21T00:32:37;2.80;;;2.30;;
8665;SDS011;4370;48.916;8.380;2023-03-21T00:35:03;5.10;;;3.20;;
8665;SDS011;4370;48.916;8.380;2023-03-21T00:37:29;5.77;;;3.80;;
8665;SDS011;4370;48.916;8.380;2023-03-21T00:39:55;4.23;;;2.63;;
8665;SDS011;4370;48.916;8.380;2023-03-21T00:42:20;3.00;;;2.50;;
8665;SDS011;4370;48.916;8.380;2023-03-21T00:44:46;3.20;;;2.40;;
8665;SDS011;4370;48.916;8.380;2023-03-21T00:47:12;4.20;;;2.37;;
8665;SDS011;4370;48.916;8.380;2023-03-21T00:49:38;3.43;;;2.27;;
8665;SDS011;4370;48.916;8.380;2023-03-21T00:52:05;2.30;;;2.10;;
8665;SDS011;4370;48.916;8.380;2023-03-21T00:54:32;3.50;;;2.37;;
8665;SDS011;4370;48.916;8.380;2023-03-21T00:56:59;2.67;;;2.47;;
8665;SDS011;4370;48.916;8.380;2023-03-21T00:59:25;3.00;;;2.10;;
8665;SDS011;4370;48.916;8.380;2023-03-21T01:01:51;5.40;;;2.70;;
8665;SDS011;4370;48.916;8.380;2023-03-21T01:04:18;3.33;;;2.43;;
8665;SDS011;4370;48.916;8.380;2023-03-21T01:06:45;3.47;;;2.97;;
8665;SDS011;4370;48.916;8.380;2023-03-21T01:09:15;3.30;;;2.80;;
8665;SDS011;4370;48.916;8.380;2023-03-21T01:11:42;3.27;;;2.57;;
8665;SDS011;4370;48.916;8.380;2023-03-21T01:14:08;4.23;;;2.80;;
8665;SDS011;4370;48.916;8.380;2023-03-21T01:16:34;4.37;;;2.60;;
8665;SDS011;4370;48.916;8.380;2023-03-21T01:19:00;2.97;;;2.60;;
8665;SDS011;4370;48.916;8.380;2023-03-21T01:21:27;5.77;;;2.60;;
8665;SDS011;4370;48.916;8.380;2023-03-21T01:23:52;2.27;;;2.07;;
8665;SDS011;4370;48.916;8.380;2023-03-21T01:26:18;4.37;;;2.60;;
8665;SDS011;4370;48.916;8.380;2023-03-21T01:28:44;4.40;;;2.60;;
8665;SDS011;4370;48.916;8.380;2023-03-21T01:31:11;4.40;;;2.50;;
8665;SDS011;4370;48.916;8.380;2023-03-21T01:33:39;5.30;;;2.60;;
8665;SDS011;4370;48.916;8.380;2023-03-21T01:36:05;4.47;;;2.17;;
8665;SDS011;4370;48.916;8.380;2023-03-21T01:38:31;2.97;;;2.60;;
8665;SDS011;4370;48.916;8.380;2023-03-21T01:40:58;4.57;;;2.20;;
8665;SDS011;4370;48.916;8.380;2023-03-21T01:43:30;2.57;;;2.30;;
8665;SDS011;4370;48.916;8.380;2023-03-21T01:48:23;5.60;;;2.37;;
8665;SDS011;4370;48.916;8.380;2023-03-21T01:50:51;4.53;;;2.47;;
8665;SDS011;4370;48.916;8.380;2023-03-21T01:53:18;3.97;;;2.37;;
8665;SDS011;4370;48.916;8.380;2023-03-21T01:55:46;3.17;;;2.30;;
8665;SDS011;4370;48.916;8.380;2023-03-21T01:58:14;6.60;;;2.67;;
8665;SDS011;4370;48.916;8.380;2023-03-21T02:00:46;9.63;;;3.57;;
8665;SDS011;4370;48.916;8.380;2023-03-21T02:03:14;6.97;;;3.10;;
8665;SDS011;4370;48.916;8.380;2023-03-21T02:05:54;3.00;;;2.30;;
8665;SDS011;4370;48.916;8.380;2023-03-21T02:08:24;3.63;;;2.53;;
8665;SDS011;4370;48.916;8.380;2023-03-21T02:10:51;3.73;;;2.60;;
8665;SDS011;4370;48.916;8.380;2023-03-21T02:13:17;5.23;;;3.30;;
8665;SDS011;4370;48.916;8.380;2023-03-21T02:15:50;6.93;;;3.80;;
8665;SDS011;4370;48.916;8.380;2023-03-21T02:18:33;5.47;;;3.63;;
8665;SDS011;4370;48.916;8.380;2023-03-21T02:21:38;5.43;;;4.23;;
8665;SDS011;4370;48.916;8.380;2023-03-21T02:27:03;5.33;;;4.57;;
8665;SDS011;4370;48.916;8.380;2023-03-21T02:32:16;6.67;;;4.70;;
8665;SDS011;4370;48.916;8.380;2023-03-21T02:35:12;4.33;;;3.70;;
8665;SDS011;4370;48.916;8.380;2023-03-21T02:38:06;4.30;;;3.40;;
8665;SDS011;4370;48.916;8.380;2023-03-21T02:40:56;4.77;;;3.50;;
8665;SDS011;4370;48.916;8.380;2023-03-21T02:48:48;3.13;;;2.77;;
8665;SDS011;4370;48.916;8.380;2023-03-21T02:51:17;3.40;;;3.03;;
8665;SDS011;4370;48.916;8.380;2023-03-21T02:53:48;3.03;;;2.70;;
8665;SDS011;4370;48.916;8.380;2023-03-21T02:56:18;2.83;;;2.60;;
8665;SDS011;4370;48.916;8.380;2023-03-21T02:58:44;3.87;;;2.90;;
8665;SDS011;4370;48.916;8.380;2023-03-21T03:01:11;3.00;;;2.70;;
8665;SDS011;4370;48.916;8.380;2023-03-21T03:03:37;2.40;;;2.20;;
8665;SDS011;4370;48.916;8.380;2023-03-21T03:06:06;2.43;;;2.20;;
8665;SDS011;4370;48.916;8.380;2023-03-21T03:11:43;4.43;;;3.43;;
8665;SDS011;4370;48.916;8.380;2023-03-21T03:16:38;6.17;;;3.70;;
8665;SDS011;4370;48.916;8.380;2023-03-21T03:19:25;5.23;;;3.40;;
8665;SDS011;4370;48.916;8.380;2023-03-21T03:24:32;3.50;;;3.20;;
8665;SDS011;4370;48.916;8.380;2023-03-21T03:27:08;3.37;;;2.73;;
8665;SDS011;4370;48.916;8.380;2023-03-21T03:29:39;3.37;;;2.80;;
8665;SDS011;4370;48.916;8.380;2023-03-21T03:32:11;5.57;;;3.07;;
8665;SDS011;4370;48.916;8.380;2023-03-21T03:34:39;3.73;;;2.90;;
8665;SDS011;4370;48.916;8.380;2023-03-21T03:37:10;5.87;;;3.30;;
8665;SDS011;4370;48.916;8.380;2023-03-21T03:39:45;5.00;;;4.13;;
8665;SDS011;4370;48.916;8.380;2023-03-21T03:42:23;6.17;;;3.97;;
8665;SDS011;4370;48.916;8.380;2023-03-21T03:44:55;4.63;;;3.67;;
8665;SDS011;4370;48.916;8.380;2023-03-21T03:47:23;4.37;;;3.10;;
8665;SDS011;4370;48.916;8.380;2023-03-21T03:52:49;3.23;;;2.93;;
8665;SDS011;4370;48.916;8.380;2023-03-21T03:55:18;4.13;;;3.70;;
8665;SDS011;4370;48.916;8.380;2023-03-21T03:57:46;3.33;;;3.03;;
8665;SDS011;4370;48.916;8.380;2023-03-21T04:00:12;4.00;;;3.20;;
8665;SDS011;4370;48.916;8.380;2023-03-21T04:02:40;3.10;;;2.80;;
8665;SDS011;4370;48.916;8.380;2023-03-21T04:05:06;3.53;;;2.80;;
8665;SDS011;4370;48.916;8.380;2023-03-21T04:07:32;3.37;;;2.70;;
8665;SDS011;4370;48.916;8.380;2023-03-21T04:09:58;4.03;;;2.93;;
8665;SDS011;4370;48.916;8.380;2023-03-21T04:12:24;3.43;;;2.97;;
8665;SDS011;4370;48.916;8.380;2023-03-21T04:14:50;3.80;;;3.00;;
8665;SDS011;4370;48.916;8.380;2023-03-21T04:17:16;5.30;;;3.20;;
8665;SDS011;4370;48.916;8.380;2023-03-21T04:19:42;3.30;;;2.83;;
8665;SDS011;4370;48.916;8.380;2023-03-21T04:22:09;6.60;;;3.20;;
8665;SDS011;4370;48.916;8.380;2023-03-21T04:24:36;3.10;;;2.70;;
8665;SDS011;4370;48.916;8.380;2023-03-21T04:27:02;3.83;;;3.07;;
8665;SDS011;4370;48.916;8.380;2023-03-21T04:29:29;3.13;;;2.83;;
8665;SDS011;4370;48.916;8.380;2023-03-21T04:31:56;4.27;;;3.00;;
8665;SDS011;4370;48.916;8.380;2023-03-21T04:34:23;4.60;;;3.20;;
8665;SDS011;4370;48.916;8.380;2023-03-21T04:36:52;3.70;;;3.20;;
8665;SDS011;4370;48.916;8.380;2023-03-21T04:39:18;12.83;;;8.63;;
8665;SDS011;4370;48.916;8.380;2023-03-21T04:41:44;6.63;;;4.97;;
8665;SDS011;4370;48.916;8.380;2023-03-21T04:44:11;6.20;;;4.80;;
8665;SDS011;4370;48.916;8.380;2023-03-21T04:46:38;6.97;;;5.47;;
8665;SDS011;4370;48.916;8.380;2023-03-21T04:49:04;7.07;;;5.27;;
8665;SDS011;4370;48.916;8.380;2023-03-21T04:51:31;11.20;;;6.93;;
8665;SDS011;4370;48.916;8.380;2023-03-21T04:53:57;6.97;;;4.90;;
8665;SDS011;4370;48.916;8.380;2023-03-21T04:56:24;5.97;;;4.57;;
8665;SDS011;4370;48.916;8.380;2023-03-21T04:58:56;5.33;;;4.27;;
8665;SDS011;4370;48.916;8.380;2023-03-21T05:01:26;5.27;;;4.30;;
8665;SDS011;4370;48.916;8.380;2023-03-21T05:03:55;5.63;;;3.43;;
8665;SDS011;4370;48.916;8.380;2023-03-21T05:06:22;4.30;;;3.00;;
8665;SDS011;4370;48.916;8.380;2023-03-21T05:08:48;5.43;;;3.33;;
8665;SDS011;4370;48.916;8.380;2023-03-21T05:11:14;4.37;;;3.43;;
8665;SDS011;4370;48.916;8.380;2023-03-21T05:13:40;3.40;;;3.10;;
8665;SDS011;4370;48.916;8.380;2023-03-21T05:16:06;3.30;;;2.90;;
8665;SDS011;4370;48.916;8.380;2023-03-21T05:18:32;3.23;;;2.87;;
8665;SDS011;4370;48.916;8.380;2023-03-21T05:20:58;4.23;;;3.10;;
8665;SDS011;4370;48.916;8.380;2023-03-21T05:23:24;3.13;;;2.67;;
8665;SDS011;4370;48.916;8.380;2023-03-21T05:25:55;4.37;;;2.77;;
8665;SDS011;4370;48.916;8.380;2023-03-21T05:28:21;2.80;;;2.33;;
8665;SDS011;4370;48.916;8.380;2023-03-21T05:30:47;3.30;;;2.60;;
8665;SDS011;4370;48.916;8.380;2023-03-21T05:33:13;4.17;;;3.20;;
8665;SDS011;4370;48.916;8.380;2023-03-21T05:35:39;6.57;;;3.87;;
8665;SDS011;4370;48.916;8.380;2023-03-21T05:38:05;4.50;;;3.40;;
8665;SDS011;4370;48.916;8.380;2023-03-21T05:40:31;3.73;;;3.07;;
8665;SDS011;4370;48.916;8.380;2023-03-21T05:42:57;7.50;;;3.83;;
8665;SDS011;4370;48.916;8.380;2023-03-21T05:45:22;4.30;;;2.93;;
8665;SDS011;4370;48.916;8.380;2023-03-21T05:47:48;8.27;;;3.13;;
8665;SDS011;4370;48.916;8.380;2023-03-21T05:50:14;3.37;;;3.00;;
8665;SDS011;4370;48.916;8.380;2023-03-21T05:52:40;3.37;;;2.80;;
8665;SDS011;4370;48.916;8.380;2023-03-21T05:55:05;3.53;;;3.00;;
8665;SDS011;4370;48.916;8.380;2023-03-21T05:57:31;2.93;;;2.60;;
8665;SDS011;4370;48.916;8.380;2023-03-21T06:00:03;4.57;;;2.70;;
8665;SDS011;4370;48.916;8.380;2023-03-21T06:02:29;2.83;;;2.43;;
8665;SDS011;4370;48.916;8.380;2023-03-21T06:04:55;4.13;;;2.53;;
8665;SDS011;4370;48.916;8.380;2023-03-21T06:07:21;4.00;;;2.50;;
8665;SDS011;4370;48.916;8.380;2023-03-21T06:09:47;2.53;;;2.27;;
8665;SDS011;4370;48.916;8.380;2023-03-21T06:12:13;4.53;;;2.50;;
8665;SDS011;4370;48.916;8.380;2023-03-21T06:14:39;5.47;;;2.80;;
8665;SDS011;4370;48.916;8.380;2023-03-21T06:17:05;3.60;;;2.40;;
8665;SDS011;4370;48.916;8.380;2023-03-21T06:19:31;3.33;;;2.40;;
8665;SDS011;4370;48.916;8.380;2023-03-21T06:21:57;4.47;;;2.80;;
8665;SDS011;4370;48.916;8.380;2023-03-21T06:24:23;2.87;;;2.47;;
8665;SDS011;4370;48.916;8.380;2023-03-21T06:26:50;3.77;;;2.97;;
8665;SDS011;4370;48.916;8.380;2023-03-21T06:29:16;3.87;;;3.30;;
8665;SDS011;4370;48.916;8.380;2023-03-21T06:31:42;6.50;;;5.00;;
8665;SDS011;4370;48.916;8.380;2023-03-21T06:34:07;6.67;;;5.17;;
8665;SDS011;4370;48.916;8.380;2023-03-21T06:36:35;6.50;;;4.70;;
8665;SDS011;4370;48.916;8.380;2023-03-21T06:39:02;4.83;;;3.90;;
8665;SDS011;4370;48.916;8.380;2023-03-21T06:41:28;5.27;;;3.00;;
8665;SDS011;4370;48.916;8.380;2023-03-21T06:43:54;4.43;;;2.40;;
8665;SDS011;4370;48.916;8.380;2023-03-21T06:46:20;2.70;;;1.87;;
8665;SDS011;4370;48.916;8.380;2023-03-21T06:48:45;4.33;;;2.27;;
8665;SDS011;4370;48.916;8.380;2023-03-21T06:51:12;4.20;;;1.97;;
8665;SDS011;4370;48.916;8.380;2023-03-21T06:53:38;5.23;;;2.03;;
8665;SDS011;4370;48.916;8.380;2023-03-21T06:56:05;4.10;;;2.00;;
8665;SDS011;4370;48.916;8.380;2023-03-21T06:58:31;2.73;;;1.90;;
8665;SDS011;4370;48.916;8.380;2023-03-21T07:00:58;4.20;;;2.30;;
8665;SDS011;4370;48.916;8.380;2023-03-21T07:03:25;5.53;;;2.70;;
8665;SDS011;4370;48.916;8.380;2023-03-21T07:05:51;4.63;;;2.80;;
8665;SDS011;4370;48.916;8.380;2023-03-21T07:08:17;4.37;;;2.50;;
8665;SDS011;4370;48.916;8.380;2023-03-21T07:10:44;4.00;;;2.50;;
8665;SDS011;4370;48.916;8.380;2023-03-21T07:13:10;6.43;;;3.00;;
8665;SDS011;4370;48.916;8.380;2023-03-21T07:15:38;15.80;;;3.50;;
8665;SDS011;4370;48.916;8.380;2023-03-21T07:18:05;14.93;;;3.43;;
8665;SDS011;4370;48.916;8.380;2023-03-21T07:20:32;5.60;;;2.70;;
8665;SDS011;4370;48.916;8.380;2023-03-21T07:22:59;4.07;;;2.60;;
8665;SDS011;4370;48.916;8.380;2023-03-21T07:25:25;6.67;;;2.90;;
8665;SDS011;4370;48.916;8.380;2023-03-21T07:27:51;4.53;;;2.70;;
8665;SDS011;4370;48.916;8.380;2023-03-21T07:30:17;3.50;;;2.37;;
8665;SDS011;4370;48.916;8.380;2023-03-21T07:32:42;3.23;;;2.13;;
8665;SDS011;4370;48.916;8.380;2023-03-21T07:35:10;2.77;;;2.37;;
8665;SDS011;4370;48.916;8.380;2023-03-21T07:37:37;2.97;;;2.10;;
8665;SDS011;4370;48.916;8.380;2023-03-21T07:40:04;3.77;;;2.23;;
8665;SDS011;4370;48.916;8.380;2023-03-21T07:42:34;3.20;;;2.33;;
8665;SDS011;4370;48.916;8.380;2023-03-21T07:45:00;2.87;;;2.43;;
8665;SDS011;4370;48.916;8.380;2023-03-21T07:47:26;3.30;;;2.27;;
8665;SDS011;4370;48.916;8.380;2023-03-21T07:49:53;3.07;;;2.40;;
8665;SDS011;4370;48.916;8.380;2023-03-21T07:52:19;3.43;;;2.33;;
8665;SDS011;4370;48.916;8.380;2023-03-21T07:54:45;3.67;;;2.20;;
8665;SDS011;4370;48.916;8.380;2023-03-21T07:57:10;6.17;;;2.60;;
8665;SDS011;4370;48.916;8.380;2023-03-21T07:59:36;4.47;;;2.40;;
8665;SDS011;4370;48.916;8.380;2023-03-21T08:02:02;4.47;;;2.13;;
8665;SDS011;4370;48.916;8.380;2023-03-21T08:04:27;3.97;;;2.00;;
8665;SDS011;4370;48.916;8.380;2023-03-21T08:06:53;4.40;;;2.27;;
8665;SDS011;4370;48.916;8.380;2023-03-21T08:09:19;3.70;;;1.90;;
8665;SDS011;4370;48.916;8.380;2023-03-21T08:11:44;2.67;;;2.03;;
8665;SDS011;4370;48.916;8.380;2023-03-21T08:14:10;5.53;;;2.37;;
8665;SDS011;4370;48.916;8.380;2023-03-21T08:16:36;2.50;;;2.17;;
8665;SDS011;4370;48.916;8.380;2023-03-21T08:19:01;6.90;;;2.10;;
8665;SDS011;4370;48.916;8.380;2023-03-21T08:21:27;4.70;;;1.90;;
8665;SDS011;4370;48.916;8.380;2023-03-21T08:23:53;2.37;;;2.10;;
8665;SDS011;4370;48.916;8.380;2023-03-21T08:26:18;5.30;;;2.60;;
8665;SDS011;4370;48.916;8.380;2023-03-21T08:28:44;2.70;;;2.20;;
8665;SDS011;4370;48.916;8.380;2023-03-21T08:31:10;2.97;;;2.30;;
8665;SDS011;4370;48.916;8.380;2023-03-21T08:33:37;7.93;;;2.37;;
8665;SDS011;4370;48.916;8.380;2023-03-21T08:36:03;6.10;;;2.50;;
8665;SDS011;4370;48.916;8.380;2023-03-21T08:38:30;3.67;;;2.50;;
8665;SDS011;4370;48.916;8.380;2023-03-21T08:40:57;3.93;;;2.50;;
8665;SDS011;4370;48.916;8.380;2023-03-21T08:43:24;5.40;;;2.43;;
8665;SDS011;4370;48.916;8.380;2023-03-21T08:45:50;3.07;;;2.17;;
8665;SDS011;4370;48.916;8.380;2023-03-21T08:48:17;3.83;;;2.30;;
8665;SDS011;4370;48.916;8.380;2023-03-21T08:50:43;3.30;;;2.10;;
8665;SDS011;4370;48.916;8.380;2023-03-21T08:53:08;3.70;;;2.30;;
8665;SDS011;4370;48.916;8.380;2023-03-21T08:55:34;3.37;;;2.30;;
8665;SDS011;4370;48.916;8.380;2023-03-21T08:58:00;5.07;;;2.40;;
8665;SDS011;4370;48.916;8.380;2023-03-21T09:00:25;3.20;;;2.27;;
8665;SDS011;4370;48.916;8.380;2023-03-21T09:02:51;3.73;;;2.00;;
8665;SDS011;4370;48.916;8.380;2023-03-21T09:05:18;2.90;;;2.10;;
8665;SDS011;4370;48.916;8.380;2023-03-21T09:07:44;4.70;;;2.30;;
8665;SDS011;4370;48.916;8.380;2023-03-21T09:10:11;3.73;;;2.00;;
8665;SDS011;4370;48.916;8.380;2023-03-21T09:12:39;3.10;;;2.00;;
8665;SDS011;4370;48.916;8.380;2023-03-21T09:15:06;2.93;;;2.00;;
8665;SDS011;4370;48.916;8.380;2023-03-21T09:17:32;2.73;;;2.17;;
8665;SDS011;4370;48.916;8.380;2023-03-21T09:19:58;5.63;;;2.30;;
8665;SDS011;4370;48.916;8.380;2023-03-21T09:22:24;2.53;;;1.90;;
8665;SDS011;4370;48.916;8.380;2023-03-21T09:24:51;3.20;;;1.90;;
8665;SDS011;4370;48.916;8.380;2023-03-21T09:27:17;3.73;;;1.90;;
8665;SDS011;4370;48.916;8.380;2023-03-21T09:29:46;3.27;;;2.00;;
8665;SDS011;4370;48.916;8.380;2023-03-21T09:32:13;5.57;;;2.57;;
8665;SDS011;4370;48.916;8.380;2023-03-21T09:34:39;3.20;;;1.97;;
8665;SDS011;4370;48.916;8.380;2023-03-21T09:37:05;3.13;;;2.20;;
8665;SDS011;4370;48.916;8.380;2023-03-21T09:39:38;3.13;;;2.30;;
8665;SDS011;4370;48.916;8.380;2023-03-21T09:47:16;5.23;;;2.40;;
8665;SDS011;4370;48.916;8.380;2023-03-21T09:49:58;6.70;;;2.30;;
8665;SDS011;4370;48.916;8.380;2023-03-21T09:52:32;3.43;;;2.20;;
8665;SDS011;4370;48.916;8.380;2023-03-21T09:55:14;3.07;;;2.27;;
8665;SDS011;4370;48.916;8.380;2023-03-21T09:57:43;3.60;;;2.10;;
8665;SDS011;4370;48.916;8.380;2023-03-21T10:00:23;2.70;;;2.27;;
8665;SDS011;4370;48.916;8.380;2023-03-21T10:02:53;5.17;;;2.23;;
8665;SDS011;4370;48.916;8.380;2023-03-21T10:05:25;3.20;;;2.47;;
8665;SDS011;4370;48.916;8.380;2023-03-21T10:08:01;5.50;;;2.60;;
8665;SDS011;4370;48.916;8.380;2023-03-21T10:10:52;3.73;;;2.43;;
8665;SDS011;4370;48.916;8.380;2023-03-21T10:13:24;3.60;;;2.40;;
8665;SDS011;4370;48.916;8.380;2023-03-21T10:15:56;3.87;;;2.47;;
8665;SDS011;4370;48.916;8.380;2023-03-21T10:18:25;5.53;;;2.73;;
8665;SDS011;4370;48.916;8.380;2023-03-21T10:20:53;2.77;;;2.23;;
8665;SDS011;4370;48.916;8.380;2023-03-21T10:23:21;3.80;;;2.63;;
8665;SDS011;4370;48.916;8.380;2023-03-21T10:25:51;5.27;;;2.67;;
8665;SDS011;4370;48.916;8.380;2023-03-21T10:28:23;5.17;;;2.60;;
8665;SDS011;4370;48.916;8.380;2023-03-21T10:30:59;4.67;;;2.60;;
8665;SDS011;4370;48.916;8.380;2023-03-21T10:33:38;4.67;;;2.73;;
8665;SDS011;4370;48.916;8.380;2023-03-21T10:38:49;3.97;;;3.00;;
8665;SDS011;4370;48.916;8.380;2023-03-21T10:41:18;4.33;;;2.80;;
8665;SDS011;4370;48.916;8.380;2023-03-21T10:43:45;4.30;;;3.20;;
8665;SDS011;4370;48.916;8.380;2023-03-21T10:46:16;6.43;;;2.87;;
8665;SDS011;4370;48.916;8.380;2023-03-21T10:48:46;5.47;;;3.17;;
8665;SDS011;4370;48.916;8.380;2023-03-21T10:51:18;5.60;;;3.50;;
8665;SDS011;4370;48.916;8.380;2023-03-21T10:53:49;5.90;;;2.80;;
8665;SDS011;4370;48.916;8.380;2023-03-21T10:56:55;3.33;;;2.50;;
8665;SDS011;4370;48.916;8.380;2023-03-21T10:59:21;5.07;;;2.57;;
8665;SDS011;4370;48.916;8.380;2023-03-21T11:01:49;5.33;;;2.90;;
8665;SDS011;4370;48.916;8.380;2023-03-21T11:06:57;4.83;;;2.40;;
8665;SDS011;4370;48.916;8.380;2023-03-21T11:09:42;3.13;;;2.50;;
8665;SDS011;4370;48.916;8.380;2023-03-21T11:12:14;5.23;;;2.67;;
8665;SDS011;4370;48.916;8.380;2023-03-21T11:14:43;3.70;;;2.60;;
8665;SDS011;4370;48.916;8.380;2023-03-21T11:19:49;4.77;;;2.90;;
8665;SDS011;4370;48.916;8.380;2023-03-21T11:22:23;3.17;;;2.50;;
8665;SDS011;4370;48.916;8.380;2023-03-21T11:24:52;3.57;;;2.70;;
8665;SDS011;4370;48.916;8.380;2023-03-21T11:27:21;3.27;;;2.17;;
8665;SDS011;4370;48.916;8.380;2023-03-21T11:29:48;3.70;;;2.33;;
8665;SDS011;4370;48.916;8.380;2023-03-21T11:32:20;5.60;;;2.73;;
8665;SDS011;4370;48.916;8.380;2023-03-21T11:37:30;4.80;;;2.30;;
8665;SDS011;4370;48.916;8.380;2023-03-21T11:40:20;5.37;;;2.40;;
8665;SDS011;4370;48.916;8.380;2023-03-21T11:42:52;3.20;;;2.17;;
8665;SDS011;4370;48.916;8.380;2023-03-21T11:45:22;5.03;;;2.73;;
8665;SDS011;4370;48.916;8.380;2023-03-21T11:47:50;4.30;;;3.07;;
8665;SDS011;4370;48.916;8.380;2023-03-21T11:56:03;4.67;;;2.40;;
8665;SDS011;4370;48.916;8.380;2023-03-21T11:58:45;3.63;;;2.53;;
8665;SDS011;4370;48.916;8.380;2023-03-21T12:03:51;5.30;;;2.33;;
8665;SDS011;4370;48.916;8.380;2023-03-21T12:17:34;3.03;;;2.60;;
8665;SDS011;4370;48.916;8.380;2023-03-21T12:26:23;3.90;;;2.20;;
8665;SDS011;4370;48.916;8.380;2023-03-21T12:37:07;2.63;;;2.13;;
8665;SDS011;4370;48.916;8.380;2023-03-21T12:39:38;2.20;;;1.60;;
8665;SDS011;4370;48.916;8.380;2023-03-21T12:42:20;1.90;;;1.40;;
8665;SDS011;4370;48.916;8.380;2023-03-21T12:47:32;1.57;;;1.40;;
8665;SDS011;4370;48.916;8.380;2023-03-21T12:50:11;2.03;;;1.70;;
8665;SDS011;4370;48.916;8.380;2023-03-21T12:52:39;1.73;;;1.37;;
8665;SDS011;4370;48.916;8.380;2023-03-21T12:55:25;1.73;;;1.40;;
8665;SDS011;4370;48.916;8.380;2023-03-21T12:57:59;2.13;;;1.40;;
8665;SDS011;4370;48.916;8.380;2023-03-21T13:03:09;1.47;;;1.37;;
8665;SDS011;4370;48.916;8.380;2023-03-21T13:08:12;2.93;;;1.60;;
8665;SDS011;4370;48.916;8.380;2023-03-21T13:10:40;3.47;;;2.00;;
8665;SDS011;4370;48.916;8.380;2023-03-21T13:13:17;2.43;;;1.57;;
8665;SDS011;4370;48.916;8.380;2023-03-21T13:15:49;2.73;;;1.50;;
8665;SDS011;4370;48.916;8.380;2023-03-21T13:18:22;3.17;;;1.47;;
8665;SDS011;4370;48.916;8.380;2023-03-21T13:21:11;1.53;;;1.43;;
8665;SDS011;4370;48.916;8.380;2023-03-21T13:24:03;1.47;;;1.23;;
8665;SDS011;4370;48.916;8.380;2023-03-21T13:26:42;3.33;;;1.70;;
8665;SDS011;4370;48.916;8.380;2023-03-21T13:29:19;2.00;;;1.50;;
8665;SDS011;4370;48.916;8.380;2023-03-21T13:31:57;1.83;;;1.50;;
8665;SDS011;4370;48.916;8.380;2023-03-21T13:34:31;3.53;;;1.80;;
8665;SDS011;4370;48.916;8.380;2023-03-21T13:36:56;2.83;;;1.90;;
8665;SDS011;4370;48.916;8.380;2023-03-21T13:39:26;3.67;;;1.90;;
8665;SDS011;4370;48.916;8.380;2023-03-21T13:41:53;3.97;;;1.70;;
8665;SDS011;4370;48.916;8.380;2023-03-21T13:44:40;2.17;;;1.70;;
8665;SDS011;4370;48.916;8.380;2023-03-21T13:47:23;2.53;;;1.70;;
8665;SDS011;4370;48.916;8.380;2023-03-21T13:55:28;2.47;;;1.73;;
8665;SDS011;4370;48.916;8.380;2023-03-21T13:57:54;1.87;;;1.70;;
8665;SDS011;4370;48.916;8.380;2023-03-21T14:00:30;1.90;;;1.60;;
8665;SDS011;4370;48.916;8.380;2023-03-21T14:02:59;4.50;;;2.00;;
8665;SDS011;4370;48.916;8.380;2023-03-21T14:05:31;3.53;;;1.73;;
8665;SDS011;4370;48.916;8.380;2023-03-21T14:08:03;2.43;;;1.90;;
8665;SDS011;4370;48.916;8.380;2023-03-21T14:10:47;3.30;;;1.60;;
8665;SDS011;4370;48.916;8.380;2023-03-21T14:13:19;3.00;;;2.00;;
8665;SDS011;4370;48.916;8.380;2023-03-21T14:15:57;4.43;;;1.80;;
8665;SDS011;4370;48.916;8.380;2023-03-21T14:18:30;3.63;;;2.07;;
8665;SDS011;4370;48.916;8.380;2023-03-21T14:21:13;2.00;;;1.67;;
8665;SDS011;4370;48.916;8.380;2023-03-21T14:23:41;2.17;;;1.83;;
8665;SDS011;4370;48.916;8.380;2023-03-21T14:26:08;3.70;;;1.80;;
8665;SDS011;4370;48.916;8.380;2023-03-21T14:28:35;3.47;;;1.90;;
8665;SDS011;4370;48.916;8.380;2023-03-21T14:31:01;2.00;;;1.80;;
8665;SDS011;4370;48.916;8.380;2023-03-21T14:33:30;2.57;;;1.60;;
8665;SDS011;4370;48.916;8.380;2023-03-21T14:36:09;2.23;;;1.70;;
8665;SDS011;4370;48.916;8.380;2023-03-21T14:38:41;2.80;;;1.70;;
8665;SDS011;4370;48.916;8.380;2023-03-21T14:41:24;2.17;;;1.57;;
8665;SDS011;4370;48.916;8.380;2023-03-21T14:44:03;1.77;;;1.50;;
8665;SDS011;4370;48.916;8.380;2023-03-21T14:46:49;3.80;;;2.10;;
8665;SDS011;4370;48.916;8.380;2023-03-21T14:49:24;2.87;;;1.70;;
8665;SDS011;4370;48.916;8.380;2023-03-21T14:51:50;6.43;;;2.20;;
8665;SDS011;4370;48.916;8.380;2023-03-21T14:54:18;4.67;;;2.20;;
8665;SDS011;4370;48.916;8.380;2023-03-21T14:56:45;3.40;;;1.77;;
8665;SDS011;4370;48.916;8.380;2023-03-21T14:59:15;2.13;;;1.90;;
8665;SDS011;4370;48.916;8.380;2023-03-21T15:01:44;3.93;;;2.53;;
8665;SDS011;4370;48.916;8.380;2023-03-21T15:04:12;3.07;;;2.20;;
8665;SDS011;4370;48.916;8.380;2023-03-21T15:06:49;5.20;;;2.07;;
8665;SDS011;4370;48.916;8.380;2023-03-21T15:09:15;5.13;;;1.90;;
8665;SDS011;4370;48.916;8.380;2023-03-21T15:11:47;3.20;;;1.97;;
8665;SDS011;4370;48.916;8.380;2023-03-21T15:14:14;3.90;;;2.20;;
8665;SDS011;4370;48.916;8.380;2023-03-21T15:16:42;3.73;;;1.93;;
8665;SDS011;4370;48.916;8.380;2023-03-21T15:19:09;4.33;;;1.90;;
8665;SDS011;4370;48.916;8.380;2023-03-21T15:21:42;2.57;;;1.73;;
8665;SDS011;4370;48.916;8.380;2023-03-21T15:26:42;2.03;;;1.70;;
8665;SDS011;4370;48.916;8.380;2023-03-21T15:29:10;2.47;;;1.80;;
8665;SDS011;4370;48.916;8.380;2023-03-21T15:31:38;1.97;;;1.60;;
8665;SDS011;4370;48.916;8.380;2023-03-21T15:34:04;4.17;;;1.80;;
8665;SDS011;4370;48.916;8.380;2023-03-21T15:36:31;3.93;;;1.80;;
8665;SDS011;4370;48.916;8.380;2023-03-21T15:39:07;1.73;;;1.47;;
8665;SDS011;4370;48.916;8.380;2023-03-21T15:41:36;2.77;;;1.70;;
8665;SDS011;4370;48.916;8.380;2023-03-21T15:51:49;5.27;;;1.60;;
8665;SDS011;4370;48.916;8.380;2023-03-21T15:54:22;6.90;;;3.80;;
8665;SDS011;4370;48.916;8.380;2023-03-21T15:56:55;5.97;;;4.23;;
8665;SDS011;4370;48.916;8.380;2023-03-21T15:59:26;5.90;;;2.93;;
8665;SDS011;4370;48.916;8.380;2023-03-21T16:01:55;4.37;;;2.00;;
8665;SDS011;4370;48.916;8.380;2023-03-21T16:04:20;3.17;;;2.03;;
8665;SDS011;4370;48.916;8.380;2023-03-21T16:06:58;4.60;;;2.37;;
8665;SDS011;4370;48.916;8.380;2023-03-21T16:09:26;3.37;;;1.93;;
8665;SDS011;4370;48.916;8.380;2023-03-21T16:12:01;2.73;;;2.30;;
8665;SDS011;4370;48.916;8.380;2023-03-21T16:14:29;4.33;;;2.30;;
8665;SDS011;4370;48.916;8.380;2023-03-21T16:16:55;3.77;;;2.57;;
8665;SDS011;4370;48.916;8.380;2023-03-21T16:19:22;3.73;;;2.77;;
8665;SDS011;4370;48.916;8.380;2023-03-21T16:21:48;3.97;;;3.27;;
8665;SDS011;4370;48.916;8.380;2023-03-21T16:24:14;4.33;;;3.00;;
8665;SDS011;4370;48.916;8.380;2023-03-21T16:26:43;3.47;;;3.17;;
8665;SDS011;4370;48.916;8.380;2023-03-21T16:29:13;2.83;;;2.03;;
8665;SDS011;4370;48.916;8.380;2023-03-21T16:31:39;2.37;;;1.77;;
8665;SDS011;4370;48.916;8.380;2023-03-21T16:34:05;2.60;;;1.87;;
8665;SDS011;4370;48.916;8.380;2023-03-21T16:36:32;3.73;;;2.20;;
8665;SDS011;4370;48.916;8.380;2023-03-21T16:39:19;2.37;;;1.93;;
8665;SDS011;4370;48.916;8.380;2023-03-21T16:41:46;3.77;;;2.23;;
8665;SDS011;4370;48.916;8.380;2023-03-21T16:44:12;2.13;;;1.83;;
8665;SDS011;4370;48.916;8.380;2023-03-21T16:46:38;5.37;;;1.80;;
8665;SDS011;4370;48.916;8.380;2023-03-21T16:49:04;4.00;;;1.90;;
8665;SDS011;4370;48.916;8.380;2023-03-21T16:51:39;3.50;;;1.83;;
8665;SDS011;4370;48.916;8.380;2023-03-21T16:54:05;5.40;;;2.10;;
8665;SDS011;4370;48.916;8.380;2023-03-21T16:56:38;3.43;;;2.20;;
8665;SDS011;4370;48.916;8.380;2023-03-21T16:59:06;6.07;;;2.53;;
8665;SDS011;4370;48.916;8.380;2023-03-21T17:01:32;3.90;;;2.40;;
8665;SDS011;4370;48.916;8.380;2023-03-21T17:04:03;3.30;;;2.30;;
8665;SDS011;4370;48.916;8.380;2023-03-21T17:06:29;3.73;;;2.30;;